Aktoras — V7KH8 — position and weather

sailwx.info

Track history (hours):
 
Tides and Currents Weather Stations Pressure Air Temp Water Temp Dewpoint Dewpoint Depression Visibility Wind Speed Wind Dir Waves Ship Positions

Aktoras

Last reported at 2018-Apr-25 21:02 UTC. Time now 2018-Apr-25 21:56 UTC.
Position S 31°28' E 030°36'.

Length 185 m; draft 7.8 m.

Type: Tanker. MMSI: 538002620.

Date/timePositionNaut miles runAvg speedWind from/ knotsBaromVisibWave heightAir tempDewpointWater temp
2018-Apr-25 21:02S 31°28' E 030°36'014.7
2018-Apr-25 21:00S 31°27' E 030°36'1414.5
2018-Apr-25 20:03S 31°16' E 030°45'114.6
2018-Apr-25 19:59S 31°15' E 030°46'714.5
2018-Apr-25 19:30S 31°09' E 030°50'714.5
2018-Apr-25 19:00S 31°03' E 030°54'2014.6
2018-Apr-25 17:37S 30°44' E 031°03'214.5
2018-Apr-25 17:30S 30°42' E 031°04'914.5
2018-Apr-25 16:55S 30°34' E 031°07'1014.7
2018-Apr-25 16:15S 30°26' E 031°12'414.8
2018-Apr-25 16:00S 30°22' E 031°13'815.0
2018-Apr-25 15:30S 30°15' E 031°17'815.4
2018-Apr-25 15:00S 30°08' E 031°20'815.1
2018-Apr-25 14:31S 30°01' E 031°23'713.9
2018-Apr-25 14:01S 29°54' E 031°24'713.8
2018-Apr-25 13:31S 29°47' E 031°26'611.5
2018-Apr-25 13:00S 29°44' E 031°20'713.1
2018-Apr-25 12:31S 29°47' E 031°13'713.3
2018-Apr-25 12:00S 29°50' E 031°06'4 9.0
2018-Apr-25 11:30S 29°53' E 031°03'1 1.6
2018-Apr-25 10:59S 29°53' E 031°02'0 0.0
2018-Apr-23 08:18S 29°53' E 031°02'0 0.0
2018-Apr-23 08:00S 29°53' E 031°02'0 0.0
2018-Apr-23 07:29S 29°53' E 031°02'0 0.4
2018-Apr-23 07:00S 29°53' E 031°02'4 7.3
2018-Apr-23 06:30S 29°51' E 031°05'2 4.4
2018-Apr-23 06:00S 29°49' E 031°06'4 8.9
2018-Apr-23 05:30S 29°46' E 031°10'510.8
2018-Apr-23 05:00S 29°42' E 031°14'5 9.3
2018-Apr-23 04:30S 29°38' E 031°16'0 0.8
2018-Apr-23 03:58S 29°38' E 031°17'0 0.4
2018-Apr-23 03:28S 29°38' E 031°17'0 0.5
2018-Apr-23 02:58S 29°38' E 031°17'0 0.5
2018-Apr-23 02:28S 29°39' E 031°17'0 0.6
2018-Apr-23 01:58S 29°39' E 031°17'0 0.7
2018-Apr-23 01:28S 29°39' E 031°17'0 0.4
2018-Apr-23 01:00S 29°39' E 031°17'2 3.2
2018-Apr-23 00:30S 29°39' E 031°19'5 9.7
2018-Apr-23 00:00S 29°36' E 031°23'613.0
2018-Apr-22 23:30S 29°32' E 031°29'713.1
2018-Apr-22 23:00S 29°27' E 031°34'713.2
2018-Apr-22 22:30S 29°23' E 031°40'713.4
2018-Apr-22 22:00S 29°18' E 031°45'713.6
2018-Apr-22 21:29S 29°13' E 031°52'714.6
2018-Apr-22 21:00S 29°09' E 031°57'714.8
2018-Apr-22 20:30S 29°04' E 032°04'1014.6
2018-Apr-22 19:48S 28°57' E 032°13'414.2
2018-Apr-22 19:30S 28°54' E 032°15'611.3
2018-Apr-22 19:00S 28°50' E 032°10'35 0.7
2018-Apr-20 17:23S 29°22' E 031°56'411.5
2018-Apr-20 17:00S 29°26' E 031°53'611.6
2018-Apr-20 16:30S 29°31' E 031°49'611.7
2018-Apr-20 16:00S 29°36' E 031°45'611.6
2018-Apr-20 15:30S 29°40' E 031°42'611.3
2018-Apr-20 15:00S 29°45' E 031°38'611.2
2018-Apr-20 14:31S 29°50' E 031°35'611.1
2018-Apr-20 14:00S 29°55' E 031°32'510.9
2018-Apr-20 13:30S 29°59' E 031°28'510.8
2018-Apr-20 13:00S 30°04' E 031°25'510.8
2018-Apr-20 12:30S 30°08' E 031°21'510.9
2018-Apr-20 12:00S 30°13' E 031°18'611.1
2018-Apr-20 11:29S 30°18' E 031°14'511.0
2018-Apr-20 11:00S 30°22' E 031°11'510.9
2018-Apr-20 10:30S 30°27' E 031°07'611.0
2018-Apr-20 10:00S 30°31' E 031°04'  
Track history (hours):
 
Tides and Currents Weather Stations Pressure Air Temp Water Temp Dewpoint Dewpoint Depression Visibility Wind Speed Wind Dir Waves Ship Positions

Aktoras

Last reported at 2018-Apr-25 21:02 UTC. Time now 2018-Apr-25 21:56 UTC.
Position S 31°28' E 030°36'.

Length 185 m; draft 7.8 m.

Type: Tanker. MMSI: 538002620.

Date/timePositionNaut miles runAvg speedWind from/ knotsBaromVisibWave heightAir tempDewpointWater temp
2018-Apr-25 21:02S 31°28' E 030°36'014.7
2018-Apr-25 21:00S 31°27' E 030°36'1414.5
2018-Apr-25 20:03S 31°16' E 030°45'114.6
2018-Apr-25 19:59S 31°15' E 030°46'714.5
2018-Apr-25 19:30S 31°09' E 030°50'714.5
2018-Apr-25 19:00S 31°03' E 030°54'2014.6
2018-Apr-25 17:37S 30°44' E 031°03'214.5
2018-Apr-25 17:30S 30°42' E 031°04'914.5
2018-Apr-25 16:55S 30°34' E 031°07'1014.7
2018-Apr-25 16:15S 30°26' E 031°12'414.8
2018-Apr-25 16:00S 30°22' E 031°13'815.0
2018-Apr-25 15:30S 30°15' E 031°17'815.4
2018-Apr-25 15:00S 30°08' E 031°20'815.1
2018-Apr-25 14:31S 30°01' E 031°23'713.9
2018-Apr-25 14:01S 29°54' E 031°24'713.8
2018-Apr-25 13:31S 29°47' E 031°26'611.5
2018-Apr-25 13:00S 29°44' E 031°20'713.1
2018-Apr-25 12:31S 29°47' E 031°13'713.3
2018-Apr-25 12:00S 29°50' E 031°06'4 9.0
2018-Apr-25 11:30S 29°53' E 031°03'1 1.6
2018-Apr-25 10:59S 29°53' E 031°02'0 0.0
2018-Apr-23 08:18S 29°53' E 031°02'0 0.0
2018-Apr-23 08:00S 29°53' E 031°02'0 0.0
2018-Apr-23 07:29S 29°53' E 031°02'0 0.4
2018-Apr-23 07:00S 29°53' E 031°02'4 7.3
2018-Apr-23 06:30S 29°51' E 031°05'2 4.4
2018-Apr-23 06:00S 29°49' E 031°06'4 8.9
2018-Apr-23 05:30S 29°46' E 031°10'510.8
2018-Apr-23 05:00S 29°42' E 031°14'5 9.3
2018-Apr-23 04:30S 29°38' E 031°16'0 0.8
2018-Apr-23 03:58S 29°38' E 031°17'0 0.4
2018-Apr-23 03:28S 29°38' E 031°17'0 0.5
2018-Apr-23 02:58S 29°38' E 031°17'0 0.5
2018-Apr-23 02:28S 29°39' E 031°17'0 0.6
2018-Apr-23 01:58S 29°39' E 031°17'0 0.7
2018-Apr-23 01:28S 29°39' E 031°17'0 0.4
2018-Apr-23 01:00S 29°39' E 031°17'2 3.2
2018-Apr-23 00:30S 29°39' E 031°19'5 9.7
2018-Apr-23 00:00S 29°36' E 031°23'613.0
2018-Apr-22 23:30S 29°32' E 031°29'713.1
2018-Apr-22 23:00S 29°27' E 031°34'713.2
2018-Apr-22 22:30S 29°23' E 031°40'713.4
2018-Apr-22 22:00S 29°18' E 031°45'713.6
2018-Apr-22 21:29S 29°13' E 031°52'714.6
2018-Apr-22 21:00S 29°09' E 031°57'714.8
2018-Apr-22 20:30S 29°04' E 032°04'1014.6
2018-Apr-22 19:48S 28°57' E 032°13'414.2
2018-Apr-22 19:30S 28°54' E 032°15'611.3
2018-Apr-22 19:00S 28°50' E 032°10'35 0.7
2018-Apr-20 17:23S 29°22' E 031°56'411.5
2018-Apr-20 17:00S 29°26' E 031°53'611.6
2018-Apr-20 16:30S 29°31' E 031°49'611.7
2018-Apr-20 16:00S 29°36' E 031°45'611.6
2018-Apr-20 15:30S 29°40' E 031°42'611.3
2018-Apr-20 15:00S 29°45' E 031°38'611.2
2018-Apr-20 14:31S 29°50' E 031°35'611.1
2018-Apr-20 14:00S 29°55' E 031°32'510.9
2018-Apr-20 13:30S 29°59' E 031°28'510.8
2018-Apr-20 13:00S 30°04' E 031°25'510.8
2018-Apr-20 12:30S 30°08' E 031°21'510.9
2018-Apr-20 12:00S 30°13' E 031°18'611.1
2018-Apr-20 11:29S 30°18' E 031°14'511.0
2018-Apr-20 11:00S 30°22' E 031°11'510.9
2018-Apr-20 10:30S 30°27' E 031°07'611.0
2018-Apr-20 10:00S 30°31' E 031°04'  

Dump ship's entire track history